Dedham, Massachusetts
Current Conditions -  °F | °C
As of 8:53 AM on Sunday 25 Jan 2015 (Local Time) from KOWD Reporting Station
Overcast Overcast  
Wind Chill: 25°   Ceiling: 6000
Heat Index: 33°   Visibility: 10mi
Dew Point: 28°   Wind: 10mph
Humidity: 82%   Direction: 240°WSW
Pressure: 29.56"   Gusts: NA
Location:  42.25°N, 71.17°W
Report Text: KOWD 251353Z 24009KT 10SM SCT050 OVC060 01/M02 A2956 RMK AO2 SLP011 T00061022
Loading
Personal Weather Stations






























Interactive Weather Map New forecast layout! Learn more

10-Day Weather Forecast

Advertisements
Track Severe Weather on mobile